Cedar Point, North Carolina
Current Conditions -  °F | °C
As of 12:27 PM on Wednesday 26 Nov 2014 (Local Time) from KNJM Reporting Station
Moderate Rain Moderate Rain  
Wind Chill: 42°   Ceiling: 900
Heat Index: 48°   Visibility: 3mi
Dew Point: 46°   Wind: 15mph
Humidity: 93%   Direction: 340°NNW
Pressure: 29.76"   Gusts: 21mph
Location:  34.7017°N, 77.1399°W
Report Text: KNJM 261727Z 34013G18KT 3SM RA BR OVC009 09/08 A2976 RMK AO2 P0004 T00890078
Loading
Personal Weather Stations






























Interactive Weather Map New forecast layout! Learn more

10-Day Weather Forecast

Advertisements
Track Severe Weather on mobile